Etusivu
METAR-TAF:

METAR-TAF

Lentoasemat :

Saarbrücken, Saksa

Leveyspiiri: 49-13N, Pituuspiiri: 007-07E, korkeus merenpinnasta: 322 m

Tämänhetkinen sää

Tämä raportti tehtiin 20 minuuttia sitten, kello 08.50 UTC
Tuuli 8 kn idästä
Lämpötila 8°C
Kosteus 57%
Ilmanpaine 1024 hPa
Näkyvyys 10 km tai enemmän
ei pilviä alle 1500 m:ssä eikä cumulonimbus-pilviä

METAR: EDDR 040850Z 09008KT CAVOK 08/M00 Q1024 NOSIG

Aika: 11:10 (09:10 UTC)

Sääennuste

Tämä raportti tehtiin 4 tuntia ja 10 minuuttia sitten, kello 05.00 UTC
Ennuste voimassa 04. päivästä klo 06 UTC - 05. päivään klo 06 UTC
Tuuli 3 kn eri suunnista
Näkyvyys 10 km tai enemmän
ei pilviä alle 1500 m:ssä eikä cumulonimbus-pilviä
Tulossa
04. päivästä klo 06 UTC - 04. päivään klo 09 UTC
Tuuli 7 kn idästä/koillisesta

TAF: EDDR 040500Z 0406/0506 VRB03KT CAVOK BECMG 0406/0409 07007KT

Säähavainnot ja -ennusteet yli 4000 lentoasemalta (METAR- ja TAF-raportit).

Käytössä olevat sääasemat on merkitty karttaan keltaisilla ja punaisilla pisteillä.

Aseta hiiri pisteen päälle nähdäksesi sääaseman nimen.

Klikkaa sitten nähdäksesi säähavainnot ja -ennusteet.

Kartan vaihtaminen: klikkaa mustalla rastilla varustettuja vihreitä pisteitä, niin voit zoomata sisään; viivalla varustettua vihreää pistettä, niin voit zoomata ulos tai vihreitä nuolia, niin pääset viereisille kartoille.


METAR-TAF: